createdAt,value
2019-02-04T00:00:32.158Z,102499.84
2019-02-04T00:03:01.410Z,102511.26
2019-02-04T00:05:30.010Z,102505.62
2019-02-04T00:07:58.610Z,102508.25
2019-02-04T00:10:27.150Z,102510.86
2019-02-04T00:12:55.864Z,102505.42
2019-02-04T00:15:24.517Z,102516.37
2019-02-04T00:17:53.105Z,102517.61
2019-02-04T00:20:21.690Z,102511.78
2019-02-04T00:22:50.345Z,102509.56
2019-02-04T00:25:21.503Z,102515.69
2019-02-04T00:27:49.119Z,102513.47
2019-02-04T00:30:24.849Z,102516.59
2019-02-04T00:32:53.378Z,102522.93
2019-02-04T00:35:22.018Z,102525.66
2019-02-04T00:37:50.610Z,102531.02
2019-02-04T00:40:21.848Z,102539.30
2019-02-04T00:42:50.803Z,102536.30
2019-02-04T00:45:19.387Z,102540.58
2019-02-04T00:47:48.031Z,102543.87
2019-02-04T00:50:21.070Z,102539.51
2019-02-04T00:52:49.678Z,102540.72
2019-02-04T00:55:18.465Z,102542.02
2019-02-04T00:57:47.013Z,102537.05
2019-02-04T01:00:29.915Z,102540.52
2019-02-04T01:02:58.650Z,102542.59
2019-02-04T01:05:27.785Z,102536.30
2019-02-04T01:07:56.944Z,102545.84
2019-02-04T01:10:29.615Z,102546.34
2019-02-04T01:12:59.356Z,102546.08
2019-02-04T01:15:28.139Z,102537.02
2019-02-04T01:17:57.158Z,102547.16
2019-02-04T01:20:30.300Z,102543.09
2019-02-04T01:22:59.676Z,102541.65
2019-02-04T01:25:28.508Z,102550.42
2019-02-04T01:27:57.033Z,102548.15
2019-02-04T01:30:26.036Z,102547.83
2019-02-04T01:32:54.876Z,102548.41
2019-02-04T01:35:24.694Z,102551.45
2019-02-04T01:37:53.329Z,102553.03
2019-02-04T01:40:24.428Z,102563.50
2019-02-04T01:42:53.603Z,102552.95
2019-02-04T01:45:22.687Z,102555.64
2019-02-04T01:47:51.917Z,102546.36
2019-02-04T01:50:22.108Z,102548.34
2019-02-04T01:52:50.814Z,102555.34
2019-02-04T01:55:19.642Z,102559.44
2019-02-04T01:57:50.756Z,102561.58
2019-02-04T02:00:24.860Z,102559.05
2019-02-04T02:02:53.861Z,102556.69
2019-02-04T02:05:23.469Z,102563.58
2019-02-04T02:07:52.104Z,102565.31
2019-02-04T02:10:22.906Z,102556.97
2019-02-04T02:12:51.900Z,102556.94
2019-02-04T02:15:20.619Z,102551.87
2019-02-04T02:17:49.593Z,102556.28
2019-02-04T02:20:20.810Z,102553.06
2019-02-04T02:22:49.731Z,102541.52
2019-02-04T02:25:18.337Z,102552.23
2019-02-04T02:27:46.963Z,102555.74
2019-02-04T02:30:18.043Z,102550.16
2019-02-04T02:32:46.651Z,102551.95
2019-02-04T02:35:15.229Z,102557.45
2019-02-04T02:37:43.735Z,102550.80
2019-02-04T02:40:18.117Z,102556.97
2019-02-04T02:42:46.694Z,102556.14
2019-02-04T02:45:15.695Z,102561.77
2019-02-04T02:47:44.243Z,102568.63
2019-02-04T02:50:14.972Z,102571.80
2019-02-04T02:52:43.508Z,102563.09
2019-02-04T02:55:14.810Z,102571.12
2019-02-04T02:57:43.384Z,102572.97
2019-02-04T03:00:18.396Z,102573.56
2019-02-04T03:02:47.165Z,102576.77
2019-02-04T03:05:16.874Z,102576.97
2019-02-04T03:07:45.486Z,102576.47
2019-02-04T03:10:17.167Z,102583.41
2019-02-04T03:12:46.059Z,102579.50
2019-02-04T03:15:14.748Z,102577.98
2019-02-04T03:17:51.569Z,102574.06
2019-02-04T03:20:14.268Z,102579.32
2019-02-04T03:22:42.898Z,102572.41
2019-02-04T03:25:15.038Z,102566.70
2019-02-04T03:27:44.233Z,102559.19
2019-02-04T03:30:21.414Z,102562.70
2019-02-04T03:32:50.044Z,102560.22
2019-02-04T03:35:18.616Z,102560.30
2019-02-04T03:37:47.365Z,102567.62
2019-02-04T03:40:21.831Z,102573.27
2019-02-04T03:42:50.515Z,102572.72
2019-02-04T03:45:19.214Z,102575.95
2019-02-04T03:47:48.162Z,102579.58
2019-02-04T03:50:16.913Z,102575.17
2019-02-04T03:52:45.560Z,102575.48
2019-02-04T03:55:16.052Z,102582.13
2019-02-04T03:57:44.732Z,102583.67
2019-02-04T04:00:28.650Z,102573.27
2019-02-04T04:02:57.261Z,102575.83
2019-02-04T04:05:26.216Z,102572.64
2019-02-04T04:07:54.819Z,102574.19
2019-02-04T04:10:23.649Z,102578.49
2019-02-04T04:12:52.337Z,102577.91
2019-02-04T04:15:21.185Z,102574.83
2019-02-04T04:17:49.804Z,102570.11
2019-02-04T04:20:20.010Z,102558.28
2019-02-04T04:22:48.506Z,102555.96
2019-02-04T04:25:18.400Z,102552.64
2019-02-04T04:27:47.628Z,102558.59
2019-02-04T04:30:21.992Z,102562.39
2019-02-04T04:32:50.599Z,102562.69
2019-02-04T04:35:19.369Z,102560.22
2019-02-04T04:37:48.135Z,102558.95
2019-02-04T04:40:17.419Z,102557.08
2019-02-04T04:42:46.047Z,102547.48
2019-02-04T04:45:22.148Z,102556.38
2019-02-04T04:47:51.214Z,102555.36
2019-02-04T04:50:19.796Z,102553.06
2019-02-04T04:52:48.824Z,102559.83
2019-02-04T04:55:22.892Z,102562.16
2019-02-04T04:57:51.545Z,102550.72
2019-02-04T05:00:28.024Z,102546.23
2019-02-04T05:02:57.232Z,102549.15
2019-02-04T05:05:25.819Z,102551.02
2019-02-04T05:07:54.442Z,102551.30
2019-02-04T05:10:23.165Z,102549.20
2019-02-04T05:12:51.774Z,102547.87
2019-02-04T05:15:23.437Z,102557.44
2019-02-04T05:17:52.789Z,102558.23
2019-02-04T05:20:22.045Z,102558.77
2019-02-04T05:22:50.602Z,102556.94
2019-02-04T05:25:19.315Z,102560.54
2019-02-04T05:27:47.948Z,102556.94
2019-02-04T05:30:21.388Z,102565.09
2019-02-04T05:32:49.988Z,102567.21
2019-02-04T05:35:21.530Z,102567.72
2019-02-04T05:37:50.122Z,102569.30
2019-02-04T05:40:19.020Z,102577.42
2019-02-04T05:42:48.219Z,102579.28
2019-02-04T05:45:20.866Z,102575.67
2019-02-04T05:47:49.664Z,102572.50
2019-02-04T05:50:19.490Z,102574.35
2019-02-04T05:52:49.384Z,102575.56
2019-02-04T05:55:19.410Z,102581.95
2019-02-04T05:57:48.148Z,102576.30
2019-02-04T06:00:21.330Z,102582.77
2019-02-04T06:02:49.972Z,102577.64
2019-02-04T06:05:19.081Z,102572.58
2019-02-04T06:07:47.623Z,102569.56
2019-02-04T06:10:16.738Z,102574.32
2019-02-04T06:12:45.253Z,102583.20
2019-02-04T06:15:15.869Z,102577.04
2019-02-04T06:17:44.458Z,102583.21
2019-02-04T06:20:24.167Z,102580.14
2019-02-04T06:22:53.113Z,102578.08
2019-02-04T06:25:21.695Z,102569.33
2019-02-04T06:27:50.314Z,102562.55
2019-02-04T06:30:20.239Z,102562.77
2019-02-04T06:32:48.839Z,102557.08
2019-02-04T06:35:18.154Z,102552.36
2019-02-04T06:37:47.341Z,102553.27
2019-02-04T06:40:17.132Z,102549.47
2019-02-04T06:42:47.461Z,102545.02
2019-02-04T06:45:17.481Z,102551.96
2019-02-04T06:47:46.156Z,102543.97
2019-02-04T06:50:19.793Z,102533.48
2019-02-04T06:52:48.400Z,102539.88
2019-02-04T06:55:25.412Z,102537.30
2019-02-04T06:57:53.925Z,102541.23
2019-02-04T07:00:22.442Z,102541.72
2019-02-04T07:02:51.072Z,102540.77
2019-02-04T07:05:20.144Z,102547.38
2019-02-04T07:07:48.751Z,102551.69
2019-02-04T07:10:26.117Z,102551.46
2019-02-04T07:12:54.764Z,102547.27
2019-02-04T07:15:23.374Z,102541.86
2019-02-04T07:17:51.964Z,102543.70
2019-02-04T07:20:22.552Z,102534.29
2019-02-04T07:22:51.314Z,102535.91
2019-02-04T07:25:20.643Z,102529.53
2019-02-04T07:27:49.221Z,102527.54
2019-02-04T07:30:26.033Z,102530.55
2019-02-04T07:32:55.002Z,102531.59
2019-02-04T07:35:23.834Z,102530.75
2019-02-04T07:37:52.618Z,102529.38
2019-02-04T07:40:27.255Z,102529.87
2019-02-04T07:42:56.055Z,102539.21
2019-02-04T07:45:24.745Z,102528.55
2019-02-04T07:47:53.353Z,102525.33
2019-02-04T07:50:22.034Z,102530.25
2019-02-04T07:52:51.168Z,102540.38
2019-02-04T07:55:19.820Z,102537.64
2019-02-04T07:57:48.396Z,102527.90
2019-02-04T08:00:24.310Z,102532.44
2019-02-04T08:02:53.186Z,102533.58
2019-02-04T08:05:21.939Z,102539.30
2019-02-04T08:07:50.518Z,102543.36
2019-02-04T08:10:19.128Z,102552.48
2019-02-04T08:12:47.769Z,102551.34
2019-02-04T08:15:25.091Z,102554.59
2019-02-04T08:17:54.234Z,102561.50
2019-02-04T08:20:22.963Z,102569.48
2019-02-04T08:22:51.658Z,102556.98
2019-02-04T08:25:20.293Z,102540.13
2019-02-04T08:27:48.908Z,102538.95
2019-02-04T08:30:23.794Z,102533.70
2019-02-04T08:32:52.402Z,102532.09
2019-02-04T08:35:21.131Z,102519.22
2019-02-04T08:37:49.853Z,102519.22
2019-02-04T08:40:19.700Z,102523.49
2019-02-04T08:42:48.354Z,102527.11
2019-02-04T08:45:17.028Z,102515.17
2019-02-04T08:47:45.643Z,102516.72
2019-02-04T08:50:25.051Z,102512.75
2019-02-04T08:52:53.888Z,102514.42
2019-02-04T08:55:22.516Z,102500.01
2019-02-04T08:57:51.484Z,102500.41
2019-02-04T09:00:22.879Z,102496.45
2019-02-04T09:02:51.673Z,102507.05
2019-02-04T09:05:21.621Z,102503.22
2019-02-04T09:07:50.473Z,102503.39
2019-02-04T09:10:22.009Z,102510.78
2019-02-04T09:12:51.321Z,102511.82
2019-02-04T09:15:19.943Z,102502.95
2019-02-04T09:17:48.506Z,102508.81
2019-02-04T09:20:18.565Z,102504.69
2019-02-04T09:22:47.716Z,102508.94
2019-02-04T09:25:21.541Z,102500.77
2019-02-04T09:27:50.750Z,102500.41
2019-02-04T09:30:21.840Z,102497.27
2019-02-04T09:32:50.959Z,102494.38
2019-02-04T09:35:21.190Z,102488.55
2019-02-04T09:37:49.781Z,102489.75
2019-02-04T09:40:21.192Z,102483.04
2019-02-04T09:42:50.121Z,102478.13
2019-02-04T09:45:18.747Z,102476.61
2019-02-04T09:47:47.293Z,102475.04
2019-02-04T09:50:22.164Z,102470.28
2019-02-04T09:52:50.758Z,102470.20
2019-02-04T09:55:25.101Z,102469.92
2019-02-04T09:57:53.739Z,102474.41
2019-02-04T10:00:27.488Z,102475.28
2019-02-04T10:02:56.074Z,102474.67
2019-02-04T10:05:24.662Z,102478.84
2019-02-04T10:07:53.363Z,102479.34
2019-02-04T10:10:24.447Z,102471.72
2019-02-04T10:12:52.985Z,102475.48
2019-02-04T10:15:24.204Z,102474.89
2019-02-04T10:17:52.849Z,102477.78
2019-02-04T10:20:33.071Z,102466.17
2019-02-04T10:22:52.033Z,102467.27
2019-02-04T10:25:26.222Z,102464.44
2019-02-04T10:27:54.833Z,102460.81
2019-02-04T10:30:26.532Z,102453.14
2019-02-04T10:32:55.115Z,102460.36
2019-02-04T10:35:23.864Z,102459.10
2019-02-04T10:37:52.823Z,102464.88
2019-02-04T10:40:29.838Z,102459.68
2019-02-04T10:42:58.429Z,102461.11
2019-02-04T10:45:27.243Z,102462.87
2019-02-04T10:47:57.085Z,102451.63
2019-02-04T10:50:45.165Z,102443.91
2019-02-04T10:53:04.919Z,102451.23
2019-02-04T10:55:33.545Z,102449.78
2019-02-04T10:58:02.349Z,102450.65
2019-02-04T11:00:33.676Z,102438.75
2019-02-04T11:03:02.722Z,102438.06
2019-02-04T11:05:42.763Z,102436.78
2019-02-04T11:08:13.511Z,102429.17
2019-02-04T11:10:42.268Z,102430.64
2019-02-04T11:13:16.095Z,102423.91
2019-02-04T11:15:45.334Z,102429.87
2019-02-04T11:18:15.497Z,102426.77
2019-02-04T11:20:44.448Z,102425.66
2019-02-04T11:23:13.073Z,102422.72
2019-02-04T11:25:41.917Z,102409.94
2019-02-04T11:28:11.069Z,102417.13
2019-02-04T11:30:45.373Z,102403.23
2019-02-04T11:33:14.059Z,102407.88
2019-02-04T11:35:42.892Z,102403.22
2019-02-04T11:38:11.507Z,102400.77
2019-02-04T11:40:41.352Z,102398.58
2019-02-04T11:43:10.875Z,102400.45
2019-02-04T11:45:40.023Z,102396.41
2019-02-04T11:48:10.879Z,102400.73
2019-02-04T11:50:39.987Z,102396.51
2019-02-04T11:53:08.608Z,102389.83
2019-02-04T11:55:37.303Z,102383.59
2019-02-04T11:58:07.792Z,102394.16
2019-02-04T12:00:37.386Z,102395.79
2019-02-04T12:03:08.503Z,102392.41
2019-02-04T12:05:37.089Z,102390.58
2019-02-04T12:08:06.202Z,102377.36
2019-02-04T12:10:40.602Z,102377.16
2019-02-04T12:13:09.227Z,102379.62
2019-02-04T12:15:37.825Z,102373.96
2019-02-04T12:18:06.765Z,102377.53
2019-02-04T12:20:35.342Z,102374.91
2019-02-04T12:23:04.115Z,102364.17
2019-02-04T12:25:32.830Z,102363.62
2019-02-04T12:28:01.347Z,102370.14
2019-02-04T12:30:32.699Z,102362.89
2019-02-04T12:33:02.498Z,102360.92
2019-02-04T12:35:31.117Z,102360.88
2019-02-04T12:37:59.754Z,102359.63
2019-02-04T12:40:28.396Z,102355.66
2019-02-04T12:42:57.088Z,102356.45
2019-02-04T12:45:37.341Z,102361.70
2019-02-04T12:48:06.455Z,102353.34
2019-02-04T12:50:35.435Z,102345.78
2019-02-04T12:53:04.252Z,102351.70
2019-02-04T12:55:33.522Z,102351.70
2019-02-04T12:58:02.264Z,102344.94
2019-02-04T13:00:32.133Z,102349.97
2019-02-04T13:03:00.787Z,102341.12
2019-02-04T13:05:34.867Z,102347.05
2019-02-04T13:08:04.125Z,102342.27
2019-02-04T13:10:32.749Z,102347.12
2019-02-04T13:13:01.436Z,102342.58
2019-02-04T13:15:30.027Z,102343.70
2019-02-04T13:17:58.623Z,102339.69
2019-02-04T13:20:27.232Z,102329.55
2019-02-04T13:22:55.815Z,102326.95
2019-02-04T13:25:29.261Z,102326.09
2019-02-04T13:27:57.863Z,102330.19
2019-02-04T13:30:30.446Z,102330.95
2019-02-04T13:32:59.069Z,102325.81
2019-02-04T13:35:30.783Z,102328.03
2019-02-04T13:37:58.172Z,102320.13
2019-02-04T13:40:31.380Z,102328.22
2019-02-04T13:43:00.166Z,102324.70
2019-02-04T13:45:29.475Z,102324.34
2019-02-04T13:47:58.129Z,102318.70
2019-02-04T13:50:26.968Z,102318.78
2019-02-04T13:52:55.586Z,102311.48
2019-02-04T13:55:29.973Z,102310.45
2019-02-04T13:57:58.866Z,102314.36
2019-02-04T14:00:28.191Z,102307.89
2019-02-04T14:02:59.692Z,102305.79
2019-02-04T14:05:31.437Z,102306.19
2019-02-04T14:07:59.923Z,102313.67
2019-02-04T14:10:31.048Z,102300.17
2019-02-04T14:12:59.656Z,102301.56
2019-02-04T14:15:28.559Z,102307.30
2019-02-04T14:17:57.729Z,102306.27
2019-02-04T14:20:27.042Z,102304.39
2019-02-04T14:22:55.779Z,102302.16
2019-02-04T14:25:24.613Z,102304.55
2019-02-04T14:27:54.971Z,102300.91
2019-02-04T14:30:35.378Z,102299.52
2019-02-04T14:33:04.659Z,102296.61
2019-02-04T14:35:33.447Z,102299.47
2019-02-04T14:38:02.500Z,102287.75
2019-02-04T14:40:31.174Z,102286.00
2019-02-04T14:43:06.046Z,102291.92
2019-02-04T14:45:43.200Z,102291.48
2019-02-04T14:48:19.642Z,102288.94
2019-02-04T14:50:53.794Z,102290.56
2019-02-04T14:53:25.674Z,102298.30
2019-02-04T14:55:59.968Z,102291.70
2019-02-04T14:58:31.568Z,102283.05
2019-02-04T15:01:36.391Z,102287.87
2019-02-04T15:04:10.827Z,102294.23
2019-02-04T15:06:57.456Z,102297.31
2019-02-04T15:09:31.851Z,102287.36
2019-02-04T15:12:09.164Z,102282.61
2019-02-04T15:14:43.380Z,102281.24
2019-02-04T15:17:14.885Z,102281.45
2019-02-04T15:19:58.331Z,102283.89
2019-02-04T15:22:38.664Z,102273.12
2019-02-04T15:25:22.308Z,102280.05
2019-02-04T15:28:10.448Z,102284.41
2019-02-04T15:30:42.065Z,102288.69
2019-02-04T15:33:13.592Z,102282.42
2019-02-04T15:36:11.989Z,102271.19
2019-02-04T15:38:48.929Z,102272.53
2019-02-04T15:41:32.762Z,102275.33
2019-02-04T15:44:08.911Z,102267.86
2019-02-04T15:46:46.052Z,102262.58
2019-02-04T15:49:34.201Z,102266.55
2019-02-04T15:52:02.795Z,102260.06
2019-02-04T15:54:31.383Z,102251.80
2019-02-04T15:57:00.012Z,102239.28
2019-02-04T15:59:28.613Z,102231.48
2019-02-04T16:01:57.587Z,102240.91
2019-02-04T16:04:27.716Z,102243.22
2019-02-04T16:06:56.325Z,102241.88
2019-02-04T16:09:24.984Z,102240.78
2019-02-04T16:11:54.036Z,102240.12
2019-02-04T16:14:22.670Z,102246.76
2019-02-04T16:16:51.647Z,102245.29
2019-02-04T16:19:20.294Z,102254.13
2019-02-04T16:24:27.086Z,102248.58
2019-02-04T16:26:55.746Z,102249.77
2019-02-04T16:29:24.338Z,102265.34
2019-02-04T16:31:52.910Z,102264.10
2019-02-04T16:34:24.035Z,102259.21
2019-02-04T16:36:51.981Z,102258.33
2019-02-04T16:39:20.585Z,102255.07
2019-02-04T16:41:49.487Z,102260.09
2019-02-04T16:44:18.056Z,102264.30
2019-02-04T16:46:46.681Z,102251.16
2019-02-04T16:49:15.294Z,102261.83
2019-02-04T16:51:43.893Z,102260.95
2019-02-04T16:54:12.353Z,102259.29
2019-02-04T16:56:40.898Z,102256.80
2019-02-04T16:59:09.529Z,102258.91
2019-02-04T17:01:38.541Z,102264.83
2019-02-04T17:04:07.185Z,102267.64
2019-02-04T17:06:35.900Z,102278.73
2019-02-04T17:09:07.464Z,102272.90
2019-02-04T17:11:36.067Z,102269.23
2019-02-04T17:14:04.711Z,102262.02
2019-02-04T17:16:33.571Z,102266.45
2019-02-04T17:19:02.184Z,102257.55
2019-02-04T17:21:30.828Z,102248.72
2019-02-04T17:23:59.422Z,102248.98
2019-02-04T17:26:28.240Z,102248.20
2019-02-04T17:28:56.848Z,102242.58
2019-02-04T17:31:25.424Z,102247.42
2019-02-04T17:33:54.046Z,102245.82
2019-02-04T17:36:22.631Z,102249.86
2019-02-04T17:38:51.247Z,102247.02
2019-02-04T17:41:20.058Z,102244.95
2019-02-04T17:43:48.649Z,102249.55
2019-02-04T17:46:17.225Z,102241.88
2019-02-04T17:48:45.882Z,102239.23
2019-02-04T17:51:14.468Z,102232.69
2019-02-04T17:53:43.042Z,102234.61
2019-02-04T17:56:11.711Z,102234.22
2019-02-04T17:58:40.311Z,102236.77
2019-02-04T18:01:08.966Z,102224.98
2019-02-04T18:03:37.864Z,102231.69
2019-02-04T18:06:06.623Z,102228.48
2019-02-04T18:08:35.301Z,102230.28
2019-02-04T18:11:04.185Z,102226.16
2019-02-04T18:13:32.804Z,102220.38
2019-02-04T18:16:02.229Z,102218.47
2019-02-04T18:18:31.094Z,102213.80
2019-02-04T18:20:59.783Z,102210.19
2019-02-04T18:23:28.421Z,102211.25
2019-02-04T18:25:57.024Z,102210.40
2019-02-04T18:28:25.668Z,102214.89
2019-02-04T18:30:54.274Z,102202.31
2019-02-04T18:33:22.871Z,102204.61
2019-02-04T18:35:51.456Z,102209.16
2019-02-04T18:38:20.002Z,102218.55
2019-02-04T18:40:48.989Z,102211.66
2019-02-04T18:43:17.535Z,102210.63
2019-02-04T18:45:46.264Z,102211.32
2019-02-04T18:48:14.828Z,102212.19
2019-02-04T18:50:43.775Z,102215.88
2019-02-04T18:53:12.393Z,102205.79
2019-02-04T18:55:41.039Z,102212.45
2019-02-04T18:58:09.635Z,102218.46
2019-02-04T19:00:38.212Z,102215.24
2019-02-04T19:03:16.802Z,102224.62
2019-02-04T19:05:37.495Z,102231.02
2019-02-04T19:08:06.578Z,102228.83
2019-02-04T19:10:35.224Z,102238.80
2019-02-04T19:13:03.735Z,102240.22
2019-02-04T19:15:32.384Z,102238.59
2019-02-04T19:18:06.799Z,102229.76
2019-02-04T19:20:35.443Z,102239.06
2019-02-04T19:23:04.137Z,102237.83
2019-02-04T19:25:32.889Z,102247.56
2019-02-04T19:28:01.470Z,102250.93
2019-02-04T19:30:32.769Z,102257.66
2019-02-04T19:33:01.374Z,102252.66
2019-02-04T19:35:30.079Z,102250.85
2019-02-04T19:37:58.668Z,102245.82
2019-02-04T19:40:27.368Z,102256.02
2019-02-04T19:42:55.794Z,102247.95
2019-02-04T19:45:25.679Z,102246.33
2019-02-04T19:47:54.715Z,102240.52
2019-02-04T19:50:32.337Z,102250.11
2019-02-04T19:53:00.926Z,102251.03
2019-02-04T19:55:29.436Z,102239.20
2019-02-04T19:57:58.036Z,102249.15
2019-02-04T20:00:26.917Z,102235.44
2019-02-04T20:02:55.505Z,102233.55
2019-02-04T20:05:26.619Z,102236.47
2019-02-04T20:07:55.464Z,102240.01
2019-02-04T20:10:27.316Z,102242.45
2019-02-04T20:12:55.956Z,102241.99
2019-02-04T20:15:26.796Z,102247.63
2019-02-04T20:17:55.396Z,102259.20
2019-02-04T20:20:24.524Z,102221.55
2019-02-04T20:22:53.320Z,102259.11
2019-02-04T20:25:30.592Z,102267.00
2019-02-04T20:27:59.379Z,102267.08
2019-02-04T20:30:30.240Z,102270.18
2019-02-04T20:32:58.819Z,102273.53
2019-02-04T20:35:27.559Z,102278.83
2019-02-04T20:37:56.171Z,102286.82
2019-02-04T20:40:26.380Z,102272.52
2019-02-04T20:42:54.946Z,102282.79
2019-02-04T20:45:23.898Z,102277.37
2019-02-04T20:47:52.889Z,102284.78
2019-02-04T20:50:26.820Z,102283.30
2019-02-04T20:52:55.395Z,102281.69
2019-02-04T20:55:24.006Z,102277.37
2019-02-04T20:57:52.610Z,102287.36
2019-02-04T21:00:26.262Z,102283.65
2019-02-04T21:02:54.838Z,102280.06
2019-02-04T21:05:23.440Z,102274.57
2019-02-04T21:07:52.081Z,102291.45
2019-02-04T21:10:23.402Z,102285.55
2019-02-04T21:12:51.978Z,102298.64
2019-02-04T21:15:22.220Z,102298.64
2019-02-04T21:17:50.803Z,102304.79
2019-02-04T21:20:24.331Z,102296.15
2019-02-04T21:22:52.993Z,102296.15
2019-02-04T21:25:21.588Z,102305.23
2019-02-04T21:27:50.678Z,102304.66
2019-02-04T21:30:31.060Z,102305.98
2019-02-04T21:32:59.665Z,102304.33
2019-02-04T21:35:28.443Z,102312.78
2019-02-04T21:37:57.089Z,102313.00
2019-02-04T21:40:26.041Z,102308.98
2019-02-04T21:42:54.678Z,102308.78
2019-02-04T21:45:24.735Z,102313.95
2019-02-04T21:47:53.297Z,102309.44
2019-02-04T21:50:26.762Z,102310.56
2019-02-04T21:52:55.445Z,102317.50
2019-02-04T21:55:24.914Z,102316.52
2019-02-04T21:57:54.032Z,102324.00
2019-02-04T22:00:30.511Z,102319.90
2019-02-04T22:02:59.125Z,102315.50
2019-02-04T22:05:30.412Z,102311.92
2019-02-04T22:07:59.128Z,102313.06
2019-02-04T22:10:29.645Z,102318.77
2019-02-04T22:12:58.910Z,102319.53
2019-02-04T22:15:27.912Z,102320.29
2019-02-04T22:17:56.480Z,102315.64
2019-02-04T22:20:25.104Z,102316.16
2019-02-04T22:22:54.009Z,102317.33
2019-02-04T22:25:24.570Z,102312.42
2019-02-04T22:27:53.265Z,102316.05
2019-02-04T22:30:27.194Z,102314.58
2019-02-04T22:32:55.978Z,102320.61
2019-02-04T22:35:24.645Z,102329.41
2019-02-04T22:37:53.264Z,102333.44
2019-02-04T22:40:23.950Z,102316.14
2019-02-04T22:42:52.658Z,102335.19
2019-02-04T22:45:21.249Z,102332.77
2019-02-04T22:47:49.855Z,102333.81
2019-02-04T22:50:23.654Z,102330.40
2019-02-04T22:52:52.443Z,102323.18
2019-02-04T22:55:31.777Z,102322.04
2019-02-04T22:57:51.762Z,102322.04
2019-02-04T23:00:24.017Z,102330.52
2019-02-04T23:02:52.739Z,102330.52
2019-02-04T23:05:21.394Z,102326.77
2019-02-04T23:07:50.309Z,102325.84
2019-02-04T23:10:18.890Z,102341.06
2019-02-04T23:12:47.491Z,102335.73
2019-02-04T23:15:16.108Z,102346.53
2019-02-04T23:17:44.638Z,102345.22
2019-02-04T23:20:14.267Z,102336.69
2019-02-04T23:22:44.157Z,102350.65
2019-02-04T23:25:12.847Z,102343.08
2019-02-04T23:27:41.419Z,102333.93
2019-02-04T23:30:16.114Z,102331.91
2019-02-04T23:32:44.697Z,102336.08
2019-02-04T23:35:13.300Z,102339.05
2019-02-04T23:37:42.109Z,102341.64
2019-02-04T23:40:12.528Z,102347.25
2019-02-04T23:42:41.085Z,102351.33
2019-02-04T23:45:11.028Z,102344.94
2019-02-04T23:47:39.666Z,102339.44
2019-02-04T23:50:16.059Z,102339.30
2019-02-04T23:52:44.664Z,102332.61
2019-02-04T23:55:14.160Z,102333.92
2019-02-04T23:57:42.788Z,102332.66
